Sunday, August 2, 2015, 2:15 AM EDT

KTHV, York Airport

Location: Spring Grove, PA, United States Lat: 39.917
Local Time: 2:15 AM EDT ( 6:15 GMT) Lon: -76.883
Time Zone: US/Eastern Elev: 478 ft

Show me the last for .
Show Decoded

2015-08-02 01:53 METAR KTHV 020553Z AUTO 00000KT 10SM CLR 17/15 A2992 RMK AO2 SLP131 T01670150
                 10233 20161 53003 =
2015-08-02 00:53 METAR KTHV 020453Z AUTO 00000KT 10SM CLR 17/15 A2991 RMK AO2 SLP127 T01670150
                 402940167 =
2015-08-01 23:53 METAR KTHV 020353Z AUTO 00000KT 10SM CLR 18/16 A2991 RMK AO2 SLP125 T01780156 =
2015-08-01 22:53 METAR KTHV 020253Z AUTO 00000KT 10SM CLR 19/16 A2991 RMK AO2 SLP126 T01890156
                 51016 =
2015-08-01 21:53 METAR KTHV 020153Z AUTO 27003KT 10SM FEW110 19/17 A2991 RMK AO2 SLP126 T01890167
                 =
2015-08-01 20:53 METAR KTHV 020053Z AUTO 26003KT 10SM FEW120 20/18 A2988 RMK AO2 SLP118 T02000178
                 =
2015-08-01 19:53 METAR KTHV 012353Z AUTO 23003KT 10SM CLR 23/18 A2986 RMK AO2 SLP110 T02330183
                 10294 20233 53005 =
2015-08-01 18:53 METAR KTHV 012253Z AUTO 31006KT 10SM CLR 28/15 A2985 RMK AO2 SLP106 T02780150 =
2015-08-01 17:53 METAR KTHV 012153Z AUTO 30004KT 10SM FEW120 28/14 A2985 RMK AO2 SLP106 T02830144
                 =
2015-08-01 16:53 METAR KTHV 012053Z AUTO 25006KT 10SM SCT110 29/14 A2985 RMK AO2 SLP105 T02890139
                 56009 =
2015-08-01 15:53 METAR KTHV 011953Z AUTO 26005KT 10SM CLR 29/16 A2985 RMK AO2 SLP105 T02890156 =
2015-08-01 14:53 METAR KTHV 011853Z AUTO 24005KT 10SM BKN060 OVC070 28/16 A2986 RMK AO2 SLP110
                 T02780156 =
2015-08-01 13:53 METAR KTHV 011753Z AUTO 24005KT 10SM CLR 28/17 A2987 RMK AO2 SLP114 T02780167
                 10289 20228 58003 =
2015-08-01 12:53 METAR KTHV 011653Z AUTO VRB04KT 10SM SCT065 BKN095 28/16 A2989 RMK AO2 SLP119
                 T02780161 =
2015-08-01 11:53 METAR KTHV 011553Z AUTO 28007KT 10SM SCT090 28/14 A2989 RMK AO2 SLP120 T02830144
                 =
2015-08-01 10:53 METAR KTHV 011453Z AUTO 23006KT 10SM CLR 27/18 A2988 RMK AO2 SLP117 T02670183
                 51003 =
2015-08-01 09:53 METAR KTHV 011353Z AUTO 24007KT 10SM FEW110 26/18 A2988 RMK AO2 SLP117 T02560178
                 =
2015-08-01 08:53 METAR KTHV 011253Z AUTO 27006KT 10SM BKN100 24/17 A2988 RMK AO2 SLP118 T02390172
                 =
2015-08-01 07:53 METAR KTHV 011153Z AUTO 26004KT 10SM OVC095 23/17 A2987 RMK AO2 SLP114 T02330167
                 10233 20189 53011 =
2015-08-01 06:53 METAR KTHV 011053Z AUTO 00000KT 10SM SCT100 22/16 A2986 RMK AO2 SLP110 T02220156
                 =
2015-08-01 05:53 METAR KTHV 010953Z AUTO 00000KT 10SM CLR 19/16 A2985 RMK AO2 SLP106 T01940161 =
2015-08-01 04:53 METAR KTHV 010853Z AUTO 00000KT 10SM FEW120 19/16 A2984 RMK AO2 SLP103 T01940156
                 56009 =
2015-08-01 03:53 METAR KTHV 010753Z AUTO 26003KT 10SM CLR 22/15 A2985 RMK AO2 SLP106 T02220150 =
2015-08-01 02:53 METAR KTHV 010653Z AUTO 24005KT 10SM CLR 23/15 A2986 RMK AO2 SLP108 T02280150 =

Support USWX by starting your Amazon purchase here.